sensor_id;sensor_type;location;lat;lon;timestamp;P1;durP1;ratioP1;P2;durP2;ratioP2
71975;SDS011;60680;52.182;5.398;2022-07-29T00:02:24;1.73;;;0.60;;
71975;SDS011;60680;52.182;5.398;2022-07-29T00:04:51;2.55;;;0.60;;
71975;SDS011;60680;52.182;5.398;2022-07-29T00:07:17;2.45;;;0.60;;
71975;SDS011;60680;52.182;5.398;2022-07-29T00:09:44;4.18;;;0.50;;
71975;SDS011;60680;52.182;5.398;2022-07-29T00:12:17;2.47;;;0.70;;
71975;SDS011;60680;52.182;5.398;2022-07-29T00:14:55;2.00;;;0.52;;
71975;SDS011;60680;52.182;5.398;2022-07-29T00:17:22;2.70;;;0.57;;
71975;SDS011;60680;52.182;5.398;2022-07-29T00:19:50;0.88;;;0.40;;
71975;SDS011;60680;52.182;5.398;2022-07-29T00:22:16;1.77;;;0.70;;
71975;SDS011;60680;52.182;5.398;2022-07-29T00:24:43;2.50;;;0.70;;
71975;SDS011;60680;52.182;5.398;2022-07-29T00:27:11;1.20;;;0.60;;
71975;SDS011;60680;52.182;5.398;2022-07-29T00:29:37;2.28;;;0.60;;
71975;SDS011;60680;52.182;5.398;2022-07-29T00:32:04;1.25;;;0.60;;
71975;SDS011;60680;52.182;5.398;2022-07-29T00:34:31;3.38;;;0.75;;
71975;SDS011;60680;52.182;5.398;2022-07-29T00:37:16;1.10;;;0.50;;
71975;SDS011;60680;52.182;5.398;2022-07-29T00:39:42;1.17;;;0.50;;
71975;SDS011;60680;52.182;5.398;2022-07-29T00:42:09;1.40;;;0.45;;
71975;SDS011;60680;52.182;5.398;2022-07-29T00:44:36;2.13;;;0.47;;
71975;SDS011;60680;52.182;5.398;2022-07-29T00:47:06;1.42;;;0.82;;
71975;SDS011;60680;52.182;5.398;2022-07-29T00:49:34;1.97;;;0.63;;
71975;SDS011;60680;52.182;5.398;2022-07-29T00:52:01;1.67;;;0.50;;
71975;SDS011;60680;52.182;5.398;2022-07-29T00:54:28;2.00;;;0.60;;
71975;SDS011;60680;52.182;5.398;2022-07-29T00:56:58;2.92;;;0.65;;
71975;SDS011;60680;52.182;5.398;2022-07-29T00:59:25;2.88;;;0.60;;
71975;SDS011;60680;52.182;5.398;2022-07-29T01:02:01;4.83;;;0.70;;
71975;SDS011;60680;52.182;5.398;2022-07-29T01:04:30;3.63;;;0.57;;
71975;SDS011;60680;52.182;5.398;2022-07-29T01:06:58;3.60;;;0.60;;
71975;SDS011;60680;52.182;5.398;2022-07-29T01:09:26;3.00;;;0.60;;
71975;SDS011;60680;52.182;5.398;2022-07-29T01:12:13;1.58;;;0.50;;
71975;SDS011;60680;52.182;5.398;2022-07-29T01:14:44;1.93;;;0.70;;
71975;SDS011;60680;52.182;5.398;2022-07-29T01:17:31;2.08;;;0.55;;
71975;SDS011;60680;52.182;5.398;2022-07-29T01:20:13;1.10;;;0.43;;
71975;SDS011;60680;52.182;5.398;2022-07-29T01:23:02;1.63;;;0.65;;
71975;SDS011;60680;52.182;5.398;2022-07-29T01:31:10;1.20;;;0.60;;
71975;SDS011;60680;52.182;5.398;2022-07-29T01:33:53;3.35;;;0.50;;
71975;SDS011;60680;52.182;5.398;2022-07-29T01:36:45;2.90;;;0.55;;
71975;SDS011;60680;52.182;5.398;2022-07-29T01:44:41;1.67;;;0.50;;
71975;SDS011;60680;52.182;5.398;2022-07-29T01:47:12;2.72;;;0.70;;
71975;SDS011;60680;52.182;5.398;2022-07-29T01:49:47;1.08;;;0.50;;
71975;SDS011;60680;52.182;5.398;2022-07-29T01:52:21;1.33;;;0.60;;
71975;SDS011;60680;52.182;5.398;2022-07-29T01:54:53;1.57;;;0.73;;
71975;SDS011;60680;52.182;5.398;2022-07-29T01:57:27;2.92;;;0.60;;
71975;SDS011;60680;52.182;5.398;2022-07-29T01:59:58;1.95;;;0.80;;
71975;SDS011;60680;52.182;5.398;2022-07-29T02:02:27;1.92;;;0.63;;
71975;SDS011;60680;52.182;5.398;2022-07-29T02:04:56;2.83;;;0.73;;
71975;SDS011;60680;52.182;5.398;2022-07-29T02:07:24;4.80;;;0.90;;
71975;SDS011;60680;52.182;5.398;2022-07-29T02:09:51;3.00;;;0.57;;
71975;SDS011;60680;52.182;5.398;2022-07-29T02:12:20;3.35;;;0.88;;
71975;SDS011;60680;52.182;5.398;2022-07-29T02:14:49;2.25;;;0.80;;
71975;SDS011;60680;52.182;5.398;2022-07-29T02:17:25;2.15;;;0.70;;
71975;SDS011;60680;52.182;5.398;2022-07-29T02:19:57;2.20;;;0.93;;
71975;SDS011;60680;52.182;5.398;2022-07-29T02:22:28;2.55;;;0.80;;
71975;SDS011;60680;52.182;5.398;2022-07-29T02:24:57;3.13;;;0.93;;
71975;SDS011;60680;52.182;5.398;2022-07-29T02:27:26;3.78;;;0.70;;
71975;SDS011;60680;52.182;5.398;2022-07-29T02:29:54;4.65;;;0.70;;
71975;SDS011;60680;52.182;5.398;2022-07-29T02:32:24;1.87;;;0.80;;
71975;SDS011;60680;52.182;5.398;2022-07-29T02:34:53;2.03;;;0.88;;
71975;SDS011;60680;52.182;5.398;2022-07-29T02:37:21;2.05;;;0.70;;
71975;SDS011;60680;52.182;5.398;2022-07-29T02:39:50;2.75;;;0.90;;
71975;SDS011;60680;52.182;5.398;2022-07-29T02:42:20;1.60;;;0.77;;
71975;SDS011;60680;52.182;5.398;2022-07-29T02:44:48;6.03;;;0.90;;
71975;SDS011;60680;52.182;5.398;2022-07-29T02:47:17;2.47;;;0.77;;
71975;SDS011;60680;52.182;5.398;2022-07-29T02:49:53;2.88;;;0.80;;
71975;SDS011;60680;52.182;5.398;2022-07-29T02:52:42;1.60;;;0.90;;
71975;SDS011;60680;52.182;5.398;2022-07-29T02:58:33;2.20;;;0.90;;
71975;SDS011;60680;52.182;5.398;2022-07-29T03:01:14;2.55;;;0.98;;
71975;SDS011;60680;52.182;5.398;2022-07-29T03:03:49;2.70;;;0.93;;
71975;SDS011;60680;52.182;5.398;2022-07-29T03:06:19;4.68;;;0.80;;
71975;SDS011;60680;52.182;5.398;2022-07-29T03:09:03;2.40;;;0.77;;
71975;SDS011;60680;52.182;5.398;2022-07-29T03:11:38;1.90;;;0.90;;
71975;SDS011;60680;52.182;5.398;2022-07-29T03:14:16;2.50;;;0.93;;
71975;SDS011;60680;52.182;5.398;2022-07-29T03:16:47;4.57;;;1.33;;
71975;SDS011;60680;52.182;5.398;2022-07-29T03:19:14;2.60;;;0.98;;
71975;SDS011;60680;52.182;5.398;2022-07-29T03:21:41;3.10;;;1.33;;
71975;SDS011;60680;52.182;5.398;2022-07-29T03:24:07;3.07;;;1.37;;
71975;SDS011;60680;52.182;5.398;2022-07-29T03:26:36;4.82;;;1.75;;
71975;SDS011;60680;52.182;5.398;2022-07-29T03:29:02;5.03;;;1.70;;
71975;SDS011;60680;52.182;5.398;2022-07-29T03:31:29;3.97;;;1.80;;
71975;SDS011;60680;52.182;5.398;2022-07-29T03:33:56;4.70;;;1.98;;
71975;SDS011;60680;52.182;5.398;2022-07-29T03:36:23;4.43;;;2.03;;
71975;SDS011;60680;52.182;5.398;2022-07-29T03:38:50;4.32;;;2.10;;
71975;SDS011;60680;52.182;5.398;2022-07-29T03:41:18;8.82;;;2.30;;
71975;SDS011;60680;52.182;5.398;2022-07-29T03:43:47;5.35;;;2.67;;
71975;SDS011;60680;52.182;5.398;2022-07-29T03:46:15;5.78;;;1.60;;
71975;SDS011;60680;52.182;5.398;2022-07-29T03:48:46;4.60;;;1.73;;
71975;SDS011;60680;52.182;5.398;2022-07-29T03:51:16;4.50;;;1.75;;
71975;SDS011;60680;52.182;5.398;2022-07-29T03:53:43;3.95;;;1.65;;
71975;SDS011;60680;52.182;5.398;2022-07-29T03:56:09;3.35;;;1.15;;
71975;SDS011;60680;52.182;5.398;2022-07-29T03:58:38;1.90;;;1.05;;
71975;SDS011;60680;52.182;5.398;2022-07-29T04:01:05;3.30;;;1.43;;
71975;SDS011;60680;52.182;5.398;2022-07-29T04:03:32;2.95;;;1.25;;
71975;SDS011;60680;52.182;5.398;2022-07-29T04:06:03;3.15;;;1.30;;
71975;SDS011;60680;52.182;5.398;2022-07-29T04:08:32;3.30;;;1.73;;
71975;SDS011;60680;52.182;5.398;2022-07-29T04:11:00;5.82;;;2.40;;
71975;SDS011;60680;52.182;5.398;2022-07-29T04:13:27;5.40;;;2.13;;
71975;SDS011;60680;52.182;5.398;2022-07-29T04:15:54;8.30;;;2.97;;
71975;SDS011;60680;52.182;5.398;2022-07-29T04:18:20;8.77;;;3.15;;
71975;SDS011;60680;52.182;5.398;2022-07-29T04:20:47;6.18;;;2.88;;
71975;SDS011;60680;52.182;5.398;2022-07-29T04:23:14;7.88;;;2.88;;
71975;SDS011;60680;52.182;5.398;2022-07-29T04:25:40;8.17;;;2.90;;
71975;SDS011;60680;52.182;5.398;2022-07-29T04:28:08;6.30;;;2.38;;
71975;SDS011;60680;52.182;5.398;2022-07-29T04:30:36;4.00;;;1.75;;
71975;SDS011;60680;52.182;5.398;2022-07-29T04:33:04;5.55;;;1.90;;
71975;SDS011;60680;52.182;5.398;2022-07-29T04:35:36;3.97;;;1.60;;
71975;SDS011;60680;52.182;5.398;2022-07-29T04:38:15;5.23;;;1.60;;
71975;SDS011;60680;52.182;5.398;2022-07-29T04:40:42;4.40;;;1.60;;
71975;SDS011;60680;52.182;5.398;2022-07-29T04:43:09;4.75;;;1.40;;
71975;SDS011;60680;52.182;5.398;2022-07-29T04:45:37;3.63;;;1.20;;
71975;SDS011;60680;52.182;5.398;2022-07-29T04:48:04;3.47;;;1.58;;
71975;SDS011;60680;52.182;5.398;2022-07-29T04:50:30;8.30;;;1.33;;
71975;SDS011;60680;52.182;5.398;2022-07-29T04:52:58;3.17;;;1.20;;
71975;SDS011;60680;52.182;5.398;2022-07-29T04:55:24;3.22;;;1.42;;
71975;SDS011;60680;52.182;5.398;2022-07-29T04:57:51;3.53;;;1.60;;
71975;SDS011;60680;52.182;5.398;2022-07-29T05:00:18;4.35;;;1.50;;
71975;SDS011;60680;52.182;5.398;2022-07-29T05:02:44;3.80;;;1.63;;
71975;SDS011;60680;52.182;5.398;2022-07-29T05:05:11;4.05;;;1.63;;
71975;SDS011;60680;52.182;5.398;2022-07-29T05:07:40;4.65;;;1.50;;
71975;SDS011;60680;52.182;5.398;2022-07-29T05:10:06;4.38;;;1.80;;
71975;SDS011;60680;52.182;5.398;2022-07-29T05:12:34;2.45;;;1.35;;
71975;SDS011;60680;52.182;5.398;2022-07-29T05:15:00;5.13;;;1.80;;
71975;SDS011;60680;52.182;5.398;2022-07-29T05:17:27;4.60;;;1.42;;
71975;SDS011;60680;52.182;5.398;2022-07-29T05:19:54;2.38;;;1.25;;
71975;SDS011;60680;52.182;5.398;2022-07-29T05:22:20;4.20;;;1.48;;
71975;SDS011;60680;52.182;5.398;2022-07-29T05:24:47;3.10;;;1.50;;
71975;SDS011;60680;52.182;5.398;2022-07-29T05:27:14;4.13;;;1.80;;
71975;SDS011;60680;52.182;5.398;2022-07-29T05:29:40;3.95;;;1.60;;
71975;SDS011;60680;52.182;5.398;2022-07-29T05:32:10;2.35;;;1.50;;
71975;SDS011;60680;52.182;5.398;2022-07-29T05:34:37;5.25;;;1.58;;
71975;SDS011;60680;52.182;5.398;2022-07-29T05:37:16;2.53;;;1.13;;
71975;SDS011;60680;52.182;5.398;2022-07-29T05:39:43;2.30;;;1.30;;
71975;SDS011;60680;52.182;5.398;2022-07-29T05:42:15;4.88;;;1.10;;
71975;SDS011;60680;52.182;5.398;2022-07-29T05:44:42;2.10;;;0.80;;
71975;SDS011;60680;52.182;5.398;2022-07-29T05:47:08;3.15;;;1.10;;
71975;SDS011;60680;52.182;5.398;2022-07-29T05:49:35;4.60;;;1.08;;
71975;SDS011;60680;52.182;5.398;2022-07-29T05:52:02;4.60;;;1.40;;
71975;SDS011;60680;52.182;5.398;2022-07-29T05:54:29;2.83;;;1.15;;
71975;SDS011;60680;52.182;5.398;2022-07-29T05:56:55;3.08;;;1.27;;
71975;SDS011;60680;52.182;5.398;2022-07-29T05:59:22;3.88;;;1.25;;
71975;SDS011;60680;52.182;5.398;2022-07-29T06:01:55;3.80;;;1.13;;
71975;SDS011;60680;52.182;5.398;2022-07-29T06:04:23;2.23;;;1.07;;
71975;SDS011;60680;52.182;5.398;2022-07-29T06:06:50;2.40;;;1.13;;
71975;SDS011;60680;52.182;5.398;2022-07-29T06:09:16;3.72;;;1.20;;
71975;SDS011;60680;52.182;5.398;2022-07-29T06:11:43;3.05;;;1.50;;
71975;SDS011;60680;52.182;5.398;2022-07-29T06:14:10;3.78;;;1.40;;
71975;SDS011;60680;52.182;5.398;2022-07-29T06:16:36;3.93;;;1.30;;
71975;SDS011;60680;52.182;5.398;2022-07-29T06:19:03;3.17;;;1.40;;
71975;SDS011;60680;52.182;5.398;2022-07-29T06:21:30;2.35;;;1.40;;
71975;SDS011;60680;52.182;5.398;2022-07-29T06:23:56;3.30;;;1.42;;
71975;SDS011;60680;52.182;5.398;2022-07-29T06:26:23;3.53;;;1.42;;
71975;SDS011;60680;52.182;5.398;2022-07-29T06:28:57;4.37;;;1.40;;
71975;SDS011;60680;52.182;5.398;2022-07-29T06:31:23;3.90;;;1.65;;
71975;SDS011;60680;52.182;5.398;2022-07-29T06:33:50;3.58;;;1.58;;
71975;SDS011;60680;52.182;5.398;2022-07-29T06:36:19;2.63;;;1.33;;
71975;SDS011;60680;52.182;5.398;2022-07-29T06:38:50;2.92;;;1.15;;
71975;SDS011;60680;52.182;5.398;2022-07-29T06:41:17;3.27;;;1.33;;
71975;SDS011;60680;52.182;5.398;2022-07-29T06:43:44;2.33;;;1.33;;
71975;SDS011;60680;52.182;5.398;2022-07-29T06:46:20;2.05;;;1.20;;
71975;SDS011;60680;52.182;5.398;2022-07-29T06:48:57;3.35;;;1.20;;
71975;SDS011;60680;52.182;5.398;2022-07-29T06:51:23;3.95;;;1.60;;
71975;SDS011;60680;52.182;5.398;2022-07-29T06:53:51;1.77;;;1.00;;
71975;SDS011;60680;52.182;5.398;2022-07-29T06:56:27;2.70;;;1.30;;
71975;SDS011;60680;52.182;5.398;2022-07-29T06:58:54;2.67;;;1.48;;
71975;SDS011;60680;52.182;5.398;2022-07-29T07:01:23;1.52;;;1.15;;
71975;SDS011;60680;52.182;5.398;2022-07-29T07:03:49;3.80;;;1.75;;
71975;SDS011;60680;52.182;5.398;2022-07-29T07:06:16;2.07;;;1.17;;
71975;SDS011;60680;52.182;5.398;2022-07-29T07:08:43;3.72;;;1.30;;
71975;SDS011;60680;52.182;5.398;2022-07-29T07:11:10;2.90;;;1.50;;
71975;SDS011;60680;52.182;5.398;2022-07-29T07:13:36;2.47;;;1.20;;
71975;SDS011;60680;52.182;5.398;2022-07-29T07:16:03;3.45;;;1.08;;
71975;SDS011;60680;52.182;5.398;2022-07-29T07:18:30;3.63;;;1.20;;
71975;SDS011;60680;52.182;5.398;2022-07-29T07:20:57;2.47;;;1.25;;
71975;SDS011;60680;52.182;5.398;2022-07-29T07:23:24;2.95;;;1.23;;
71975;SDS011;60680;52.182;5.398;2022-07-29T07:25:52;2.63;;;1.20;;
71975;SDS011;60680;52.182;5.398;2022-07-29T07:28:19;3.28;;;1.83;;
71975;SDS011;60680;52.182;5.398;2022-07-29T07:30:50;2.63;;;1.60;;
71975;SDS011;60680;52.182;5.398;2022-07-29T07:33:17;2.40;;;1.10;;
71975;SDS011;60680;52.182;5.398;2022-07-29T07:35:43;3.63;;;1.75;;
71975;SDS011;60680;52.182;5.398;2022-07-29T07:38:10;3.65;;;1.40;;
71975;SDS011;60680;52.182;5.398;2022-07-29T07:40:37;4.32;;;1.35;;
71975;SDS011;60680;52.182;5.398;2022-07-29T07:43:03;2.30;;;1.50;;
71975;SDS011;60680;52.182;5.398;2022-07-29T07:45:30;2.75;;;1.35;;
71975;SDS011;60680;52.182;5.398;2022-07-29T07:47:59;2.92;;;1.80;;
71975;SDS011;60680;52.182;5.398;2022-07-29T07:50:26;2.25;;;1.10;;
71975;SDS011;60680;52.182;5.398;2022-07-29T07:52:53;1.73;;;1.13;;
71975;SDS011;60680;52.182;5.398;2022-07-29T07:55:24;2.47;;;1.23;;
71975;SDS011;60680;52.182;5.398;2022-07-29T07:57:52;2.92;;;1.25;;
71975;SDS011;60680;52.182;5.398;2022-07-29T08:00:19;2.25;;;1.40;;
71975;SDS011;60680;52.182;5.398;2022-07-29T08:02:48;2.97;;;1.40;;
71975;SDS011;60680;52.182;5.398;2022-07-29T08:05:16;4.22;;;1.90;;
71975;SDS011;60680;52.182;5.398;2022-07-29T08:07:45;6.83;;;1.63;;
71975;SDS011;60680;52.182;5.398;2022-07-29T08:10:15;4.75;;;1.60;;
71975;SDS011;60680;52.182;5.398;2022-07-29T08:13:05;2.72;;;1.30;;
71975;SDS011;60680;52.182;5.398;2022-07-29T08:15:33;3.88;;;1.67;;
71975;SDS011;60680;52.182;5.398;2022-07-29T08:18:00;3.60;;;1.40;;
71975;SDS011;60680;52.182;5.398;2022-07-29T08:20:33;3.80;;;1.70;;
71975;SDS011;60680;52.182;5.398;2022-07-29T08:23:02;5.10;;;1.83;;
71975;SDS011;60680;52.182;5.398;2022-07-29T08:25:29;6.20;;;1.73;;
71975;SDS011;60680;52.182;5.398;2022-07-29T08:27:55;3.75;;;1.60;;
71975;SDS011;60680;52.182;5.398;2022-07-29T08:30:25;5.15;;;1.70;;
71975;SDS011;60680;52.182;5.398;2022-07-29T08:32:52;3.20;;;1.43;;
71975;SDS011;60680;52.182;5.398;2022-07-29T08:35:21;4.25;;;1.90;;
71975;SDS011;60680;52.182;5.398;2022-07-29T08:37:49;4.35;;;1.52;;
71975;SDS011;60680;52.182;5.398;2022-07-29T08:40:16;5.20;;;1.75;;
71975;SDS011;60680;52.182;5.398;2022-07-29T08:42:43;3.40;;;2.20;;
71975;SDS011;60680;52.182;5.398;2022-07-29T08:45:10;4.83;;;1.90;;
71975;SDS011;60680;52.182;5.398;2022-07-29T08:47:38;3.47;;;1.98;;
71975;SDS011;60680;52.182;5.398;2022-07-29T08:50:08;3.58;;;2.03;;
71975;SDS011;60680;52.182;5.398;2022-07-29T08:52:36;3.00;;;1.65;;
71975;SDS011;60680;52.182;5.398;2022-07-29T08:55:08;2.47;;;1.30;;
71975;SDS011;60680;52.182;5.398;2022-07-29T08:57:37;3.83;;;1.83;;
71975;SDS011;60680;52.182;5.398;2022-07-29T09:00:16;4.03;;;1.70;;
71975;SDS011;60680;52.182;5.398;2022-07-29T09:02:45;4.13;;;1.67;;
71975;SDS011;60680;52.182;5.398;2022-07-29T09:05:18;5.00;;;2.03;;
71975;SDS011;60680;52.182;5.398;2022-07-29T09:07:45;8.05;;;1.92;;
71975;SDS011;60680;52.182;5.398;2022-07-29T09:10:14;2.43;;;1.40;;
71975;SDS011;60680;52.182;5.398;2022-07-29T09:12:41;4.00;;;1.70;;
71975;SDS011;60680;52.182;5.398;2022-07-29T09:15:07;4.25;;;1.70;;
71975;SDS011;60680;52.182;5.398;2022-07-29T09:17:47;4.35;;;1.67;;
71975;SDS011;60680;52.182;5.398;2022-07-29T09:20:16;4.95;;;2.22;;
71975;SDS011;60680;52.182;5.398;2022-07-29T09:22:45;2.30;;;1.77;;
71975;SDS011;60680;52.182;5.398;2022-07-29T09:25:33;5.80;;;1.80;;
71975;SDS011;60680;52.182;5.398;2022-07-29T09:28:08;4.63;;;1.77;;
71975;SDS011;60680;52.182;5.398;2022-07-29T09:30:52;2.92;;;1.70;;
71975;SDS011;60680;52.182;5.398;2022-07-29T09:33:21;13.32;;;2.63;;
71975;SDS011;60680;52.182;5.398;2022-07-29T09:36:01;5.63;;;2.40;;
71975;SDS011;60680;52.182;5.398;2022-07-29T09:38:38;3.50;;;1.98;;
71975;SDS011;60680;52.182;5.398;2022-07-29T09:41:05;3.42;;;1.83;;
71975;SDS011;60680;52.182;5.398;2022-07-29T09:43:34;3.45;;;2.60;;
71975;SDS011;60680;52.182;5.398;2022-07-29T09:46:10;6.28;;;2.15;;
71975;SDS011;60680;52.182;5.398;2022-07-29T09:48:38;8.37;;;3.30;;
71975;SDS011;60680;52.182;5.398;2022-07-29T09:51:05;8.05;;;2.10;;
71975;SDS011;60680;52.182;5.398;2022-07-29T09:53:47;4.70;;;2.30;;
71975;SDS011;60680;52.182;5.398;2022-07-29T09:56:13;5.70;;;2.08;;
71975;SDS011;60680;52.182;5.398;2022-07-29T09:58:40;4.57;;;2.03;;
71975;SDS011;60680;52.182;5.398;2022-07-29T10:01:06;5.23;;;1.97;;
71975;SDS011;60680;52.182;5.398;2022-07-29T10:03:49;4.07;;;2.30;;
71975;SDS011;60680;52.182;5.398;2022-07-29T10:06:17;4.68;;;2.42;;
71975;SDS011;60680;52.182;5.398;2022-07-29T10:08:44;4.20;;;3.05;;
71975;SDS011;60680;52.182;5.398;2022-07-29T10:11:17;5.72;;;2.55;;
71975;SDS011;60680;52.182;5.398;2022-07-29T10:13:45;10.50;;;2.73;;
71975;SDS011;60680;52.182;5.398;2022-07-29T10:16:13;4.80;;;2.75;;
71975;SDS011;60680;52.182;5.398;2022-07-29T10:18:41;6.93;;;2.80;;
71975;SDS011;60680;52.182;5.398;2022-07-29T10:21:09;3.53;;;2.30;;
71975;SDS011;60680;52.182;5.398;2022-07-29T10:23:56;5.32;;;2.40;;
71975;SDS011;60680;52.182;5.398;2022-07-29T10:26:40;4.30;;;2.70;;
71975;SDS011;60680;52.182;5.398;2022-07-29T10:29:07;4.15;;;2.30;;
71975;SDS011;60680;52.182;5.398;2022-07-29T10:31:44;3.83;;;2.30;;
71975;SDS011;60680;52.182;5.398;2022-07-29T10:43:24;4.60;;;2.80;;
71975;SDS011;60680;52.182;5.398;2022-07-29T10:45:57;5.35;;;2.70;;
71975;SDS011;60680;52.182;5.398;2022-07-29T10:48:29;6.20;;;2.53;;
71975;SDS011;60680;52.182;5.398;2022-07-29T10:50:57;6.00;;;2.70;;
71975;SDS011;60680;52.182;5.398;2022-07-29T10:53:48;4.87;;;2.50;;
71975;SDS011;60680;52.182;5.398;2022-07-29T10:56:37;4.80;;;2.90;;
71975;SDS011;60680;52.182;5.398;2022-07-29T11:01:47;4.70;;;2.53;;
71975;SDS011;60680;52.182;5.398;2022-07-29T11:07:10;4.93;;;2.67;;
71975;SDS011;60680;52.182;5.398;2022-07-29T11:09:40;5.43;;;2.88;;
71975;SDS011;60680;52.182;5.398;2022-07-29T11:15:05;5.82;;;2.30;;
71975;SDS011;60680;52.182;5.398;2022-07-29T11:28:53;3.72;;;2.10;;
71975;SDS011;60680;52.182;5.398;2022-07-29T11:31:37;5.25;;;1.90;;
71975;SDS011;60680;52.182;5.398;2022-07-29T11:45:20;4.80;;;1.70;;
71975;SDS011;60680;52.182;5.398;2022-07-29T11:48:08;4.43;;;2.00;;
71975;SDS011;60680;52.182;5.398;2022-07-29T11:50:56;5.22;;;2.30;;
71975;SDS011;60680;52.182;5.398;2022-07-29T11:53:23;3.40;;;1.75;;
71975;SDS011;60680;52.182;5.398;2022-07-29T11:55:54;3.10;;;1.40;;
71975;SDS011;60680;52.182;5.398;2022-07-29T11:58:23;3.67;;;1.85;;
71975;SDS011;60680;52.182;5.398;2022-07-29T12:00:51;3.97;;;2.40;;
71975;SDS011;60680;52.182;5.398;2022-07-29T12:03:25;4.45;;;2.28;;
71975;SDS011;60680;52.182;5.398;2022-07-29T12:06:01;7.00;;;2.60;;
71975;SDS011;60680;52.182;5.398;2022-07-29T12:08:29;4.97;;;2.10;;
71975;SDS011;60680;52.182;5.398;2022-07-29T12:10:55;2.92;;;1.95;;
71975;SDS011;60680;52.182;5.398;2022-07-29T12:13:22;5.20;;;2.30;;
71975;SDS011;60680;52.182;5.398;2022-07-29T12:16:03;5.20;;;2.30;;
71975;SDS011;60680;52.182;5.398;2022-07-29T12:18:30;3.28;;;2.50;;
71975;SDS011;60680;52.182;5.398;2022-07-29T12:21:00;4.72;;;1.92;;
71975;SDS011;60680;52.182;5.398;2022-07-29T12:23:31;3.15;;;2.30;;
71975;SDS011;60680;52.182;5.398;2022-07-29T12:26:00;5.00;;;2.90;;
71975;SDS011;60680;52.182;5.398;2022-07-29T12:28:36;3.85;;;2.40;;
71975;SDS011;60680;52.182;5.398;2022-07-29T12:31:04;5.45;;;2.30;;
71975;SDS011;60680;52.182;5.398;2022-07-29T12:33:31;3.53;;;2.10;;
71975;SDS011;60680;52.182;5.398;2022-07-29T12:35:58;5.80;;;2.25;;
71975;SDS011;60680;52.182;5.398;2022-07-29T12:38:42;5.93;;;2.20;;
71975;SDS011;60680;52.182;5.398;2022-07-29T12:41:09;4.72;;;1.88;;
71975;SDS011;60680;52.182;5.398;2022-07-29T12:43:36;4.57;;;2.38;;
71975;SDS011;60680;52.182;5.398;2022-07-29T12:46:13;6.35;;;2.30;;
71975;SDS011;60680;52.182;5.398;2022-07-29T12:48:41;3.20;;;2.40;;
71975;SDS011;60680;52.182;5.398;2022-07-29T12:51:09;3.97;;;2.00;;
71975;SDS011;60680;52.182;5.398;2022-07-29T12:53:37;3.45;;;1.90;;
71975;SDS011;60680;52.182;5.398;2022-07-29T12:56:04;3.28;;;1.83;;
71975;SDS011;60680;52.182;5.398;2022-07-29T12:58:46;5.53;;;2.72;;
71975;SDS011;60680;52.182;5.398;2022-07-29T13:01:16;5.43;;;2.55;;
71975;SDS011;60680;52.182;5.398;2022-07-29T13:06:33;4.40;;;2.22;;
71975;SDS011;60680;52.182;5.398;2022-07-29T13:14:36;4.38;;;2.03;;
71975;SDS011;60680;52.182;5.398;2022-07-29T13:17:05;5.70;;;2.77;;
71975;SDS011;60680;52.182;5.398;2022-07-29T13:19:43;3.67;;;2.53;;
71975;SDS011;60680;52.182;5.398;2022-07-29T13:22:15;5.53;;;2.15;;
71975;SDS011;60680;52.182;5.398;2022-07-29T13:24:53;8.25;;;3.30;;
71975;SDS011;60680;52.182;5.398;2022-07-29T13:27:22;5.13;;;2.60;;
71975;SDS011;60680;52.182;5.398;2022-07-29T13:29:50;4.30;;;2.63;;
71975;SDS011;60680;52.182;5.398;2022-07-29T13:32:18;5.03;;;2.85;;
71975;SDS011;60680;52.182;5.398;2022-07-29T13:34:54;4.65;;;2.40;;
71975;SDS011;60680;52.182;5.398;2022-07-29T13:37:24;5.97;;;2.58;;
71975;SDS011;60680;52.182;5.398;2022-07-29T13:39:52;6.82;;;2.85;;
71975;SDS011;60680;52.182;5.398;2022-07-29T13:42:23;5.90;;;2.70;;
71975;SDS011;60680;52.182;5.398;2022-07-29T13:44:50;3.80;;;2.97;;
71975;SDS011;60680;52.182;5.398;2022-07-29T13:47:18;3.42;;;2.47;;
71975;SDS011;60680;52.182;5.398;2022-07-29T13:49:46;6.90;;;3.03;;
71975;SDS011;60680;52.182;5.398;2022-07-29T13:52:14;5.05;;;2.90;;
71975;SDS011;60680;52.182;5.398;2022-07-29T13:54:42;4.43;;;2.33;;
71975;SDS011;60680;52.182;5.398;2022-07-29T13:57:09;6.40;;;3.05;;
71975;SDS011;60680;52.182;5.398;2022-07-29T13:59:37;4.97;;;2.35;;
71975;SDS011;60680;52.182;5.398;2022-07-29T14:02:05;5.90;;;2.40;;
71975;SDS011;60680;52.182;5.398;2022-07-29T14:04:32;3.95;;;2.30;;
71975;SDS011;60680;52.182;5.398;2022-07-29T14:06:59;4.50;;;2.50;;
71975;SDS011;60680;52.182;5.398;2022-07-29T14:09:29;4.00;;;2.38;;
71975;SDS011;60680;52.182;5.398;2022-07-29T14:12:06;4.00;;;2.75;;
71975;SDS011;60680;52.182;5.398;2022-07-29T14:14:33;6.78;;;3.58;;
71975;SDS011;60680;52.182;5.398;2022-07-29T14:17:01;8.38;;;3.85;;
71975;SDS011;60680;52.182;5.398;2022-07-29T14:19:29;6.30;;;3.10;;
71975;SDS011;60680;52.182;5.398;2022-07-29T14:21:57;6.15;;;2.47;;
71975;SDS011;60680;52.182;5.398;2022-07-29T14:24:25;7.40;;;3.60;;
71975;SDS011;60680;52.182;5.398;2022-07-29T14:26:51;6.75;;;3.33;;
71975;SDS011;60680;52.182;5.398;2022-07-29T14:29:17;6.28;;;3.40;;
71975;SDS011;60680;52.182;5.398;2022-07-29T14:31:44;5.43;;;2.83;;
71975;SDS011;60680;52.182;5.398;2022-07-29T14:34:10;8.30;;;3.65;;
71975;SDS011;60680;52.182;5.398;2022-07-29T14:36:37;8.25;;;3.75;;
71975;SDS011;60680;52.182;5.398;2022-07-29T14:39:03;11.57;;;3.75;;
71975;SDS011;60680;52.182;5.398;2022-07-29T14:41:30;6.88;;;3.70;;
71975;SDS011;60680;52.182;5.398;2022-07-29T14:43:56;9.37;;;4.00;;
71975;SDS011;60680;52.182;5.398;2022-07-29T14:46:23;5.95;;;3.53;;
71975;SDS011;60680;52.182;5.398;2022-07-29T14:48:50;7.05;;;3.08;;
71975;SDS011;60680;52.182;5.398;2022-07-29T14:51:16;3.55;;;2.70;;
71975;SDS011;60680;52.182;5.398;2022-07-29T14:53:43;6.07;;;3.28;;
71975;SDS011;60680;52.182;5.398;2022-07-29T14:56:10;4.73;;;2.53;;
71975;SDS011;60680;52.182;5.398;2022-07-29T14:58:56;6.00;;;2.33;;
71975;SDS011;60680;52.182;5.398;2022-07-29T15:01:23;3.70;;;1.80;;
71975;SDS011;60680;52.182;5.398;2022-07-29T15:03:51;4.00;;;1.77;;
71975;SDS011;60680;52.182;5.398;2022-07-29T15:06:24;4.00;;;1.80;;
71975;SDS011;60680;52.182;5.398;2022-07-29T15:08:51;4.33;;;1.67;;
71975;SDS011;60680;52.182;5.398;2022-07-29T15:11:17;6.07;;;1.80;;
71975;SDS011;60680;52.182;5.398;2022-07-29T15:13:44;4.47;;;2.10;;
71975;SDS011;60680;52.182;5.398;2022-07-29T15:16:10;4.22;;;1.60;;
71975;SDS011;60680;52.182;5.398;2022-07-29T15:18:37;6.65;;;2.33;;
71975;SDS011;60680;52.182;5.398;2022-07-29T15:21:04;2.60;;;1.50;;
71975;SDS011;60680;52.182;5.398;2022-07-29T15:23:33;4.05;;;1.10;;
71975;SDS011;60680;52.182;5.398;2022-07-29T15:26:02;3.45;;;1.20;;
71975;SDS011;60680;52.182;5.398;2022-07-29T15:28:29;4.38;;;1.27;;
71975;SDS011;60680;52.182;5.398;2022-07-29T15:30:56;2.95;;;1.02;;
71975;SDS011;60680;52.182;5.398;2022-07-29T15:33:22;4.00;;;1.40;;
71975;SDS011;60680;52.182;5.398;2022-07-29T15:35:49;2.40;;;1.10;;
71975;SDS011;60680;52.182;5.398;2022-07-29T15:38:15;4.00;;;1.10;;
71975;SDS011;60680;52.182;5.398;2022-07-29T15:40:42;5.68;;;1.40;;
71975;SDS011;60680;52.182;5.398;2022-07-29T15:43:09;4.93;;;1.45;;
71975;SDS011;60680;52.182;5.398;2022-07-29T15:45:37;3.03;;;1.10;;
71975;SDS011;60680;52.182;5.398;2022-07-29T15:48:06;3.25;;;1.10;;
71975;SDS011;60680;52.182;5.398;2022-07-29T15:50:34;1.75;;;1.20;;
71975;SDS011;60680;52.182;5.398;2022-07-29T15:53:00;4.57;;;1.20;;
71975;SDS011;60680;52.182;5.398;2022-07-29T15:55:30;3.42;;;1.08;;
71975;SDS011;60680;52.182;5.398;2022-07-29T15:57:56;5.37;;;1.00;;
71975;SDS011;60680;52.182;5.398;2022-07-29T16:00:25;2.38;;;1.15;;
71975;SDS011;60680;52.182;5.398;2022-07-29T16:02:52;5.57;;;1.10;;
71975;SDS011;60680;52.182;5.398;2022-07-29T16:05:18;3.95;;;1.48;;
71975;SDS011;60680;52.182;5.398;2022-07-29T16:07:45;6.22;;;0.93;;